createdAt,value
2018-02-11T00:01:54.868Z,0.60
2018-02-11T00:04:23.105Z,0.60
2018-02-11T00:06:50.592Z,0.60
2018-02-11T00:09:18.070Z,0.60
2018-02-11T00:11:46.319Z,0.70
2018-02-11T00:14:13.804Z,0.70
2018-02-11T00:16:42.063Z,0.70
2018-02-11T00:19:09.541Z,0.70
2018-02-11T00:21:37.795Z,0.70
2018-02-11T00:24:05.283Z,0.70
2018-02-11T00:26:32.777Z,0.80
2018-02-11T00:29:00.253Z,0.80
2018-02-11T00:31:27.741Z,0.70
2018-02-11T00:33:55.212Z,0.70
2018-02-11T00:36:23.456Z,0.70
2018-02-11T00:38:50.932Z,0.60
2018-02-11T00:41:18.408Z,0.60
2018-02-11T00:43:46.650Z,0.60
2018-02-11T00:46:14.136Z,0.50
2018-02-11T00:48:42.376Z,0.40
2018-02-11T00:51:09.850Z,0.30
2018-02-11T00:53:37.329Z,0.30
2018-02-11T00:56:05.580Z,0.10
2018-02-11T00:58:33.057Z,0.10
2018-02-11T01:01:01.589Z,-0.10
2018-02-11T01:03:29.082Z,-0.10
2018-02-11T01:05:56.556Z,-0.10
2018-02-11T01:08:24.816Z,-0.10
2018-02-11T01:10:52.293Z,-0.20
2018-02-11T01:13:20.549Z,-0.10
2018-02-11T01:15:48.040Z,-0.10
2018-02-11T01:18:16.298Z,-0.10
2018-02-11T01:20:43.788Z,-0.10
2018-02-11T01:23:11.301Z,-0.10
2018-02-11T01:25:38.782Z,-0.10
2018-02-11T01:28:07.037Z,-0.10
2018-02-11T01:30:34.515Z,-0.10
2018-02-11T01:33:02.778Z,-0.10
2018-02-11T01:35:30.268Z,-0.10
2018-02-11T01:37:58.525Z,-0.10
2018-02-11T01:40:26.000Z,-0.10
2018-02-11T01:42:54.254Z,-0.10
2018-02-11T01:45:21.977Z,-0.10
2018-02-11T01:47:49.464Z,-0.20
2018-02-11T01:50:16.954Z,-0.10
2018-02-11T01:52:45.218Z,-0.20
2018-02-11T01:55:12.696Z,-0.20
2018-02-11T01:57:40.940Z,-0.20
2018-02-11T02:00:08.475Z,-0.20
2018-02-11T02:02:35.989Z,-0.10
2018-02-11T02:05:03.502Z,-0.10
2018-02-11T02:07:31.038Z,-0.20
2018-02-11T02:09:58.609Z,-0.20
2018-02-11T02:12:26.150Z,-0.10
2018-02-11T02:14:53.653Z,-0.20
2018-02-11T02:17:21.169Z,-0.10
2018-02-11T02:19:48.702Z,-0.10
2018-02-11T02:22:17.034Z,-0.10
2018-02-11T02:24:44.538Z,-0.10
2018-02-11T02:27:12.835Z,-0.10
2018-02-11T02:29:40.353Z,-0.10
2018-02-11T02:32:07.941Z,0.00
2018-02-11T02:34:35.513Z,0.00
2018-02-11T02:37:03.101Z,0.00
2018-02-11T02:39:30.708Z,0.00
2018-02-11T02:41:58.970Z,0.10
2018-02-11T02:44:26.517Z,0.10
2018-02-11T02:46:54.021Z,0.10
2018-02-11T02:49:21.549Z,0.10
2018-02-11T02:51:49.053Z,0.20
2018-02-11T02:54:16.626Z,0.20
2018-02-11T02:56:44.169Z,0.20
2018-02-11T02:59:11.714Z,0.20
2018-02-11T03:01:39.985Z,0.20
2018-02-11T03:04:08.257Z,0.20
2018-02-11T03:06:36.529Z,0.30
2018-02-11T03:09:04.056Z,0.20
2018-02-11T03:11:31.592Z,0.30
2018-02-11T03:13:59.097Z,0.30
2018-02-11T03:16:26.630Z,0.30
2018-02-11T03:18:54.158Z,0.30
2018-02-11T03:21:21.664Z,0.30
2018-02-11T03:23:49.181Z,0.40
2018-02-11T03:26:16.699Z,0.30
2018-02-11T03:28:44.241Z,0.30
2018-02-11T03:31:11.741Z,0.30
2018-02-11T03:33:40.026Z,0.40
2018-02-11T03:36:07.545Z,0.30
2018-02-11T03:38:35.088Z,0.40
2018-02-11T03:41:02.614Z,0.40
2018-02-11T03:43:30.133Z,0.40
2018-02-11T03:45:57.671Z,0.40
2018-02-11T03:48:25.245Z,0.40
2018-02-11T03:50:52.816Z,0.40
2018-02-11T03:53:21.174Z,0.40
2018-02-11T03:55:48.691Z,0.40
2018-02-11T03:58:16.210Z,0.40
2018-02-11T04:00:43.756Z,0.40
2018-02-11T04:03:11.281Z,0.40
2018-02-11T04:05:38.795Z,0.50
2018-02-11T04:08:07.088Z,0.40
2018-02-11T04:10:35.358Z,0.40
2018-02-11T04:13:03.637Z,0.40
2018-02-11T04:15:31.925Z,0.40
2018-02-11T04:18:00.217Z,0.40
2018-02-11T04:20:27.761Z,0.40
2018-02-11T04:22:55.298Z,0.40
2018-02-11T04:25:23.595Z,0.40
2018-02-11T04:27:51.165Z,0.40
2018-02-11T04:30:18.692Z,0.40
2018-02-11T04:32:46.217Z,0.40
2018-02-11T04:35:14.506Z,0.40
2018-02-11T04:37:42.024Z,0.40
2018-02-11T04:40:09.540Z,0.40
2018-02-11T04:42:37.045Z,0.40
2018-02-11T04:45:04.553Z,0.50
2018-02-11T04:47:32.064Z,0.50
2018-02-11T04:49:59.638Z,0.50
2018-02-11T04:52:27.133Z,0.40
2018-02-11T04:54:54.663Z,0.40
2018-02-11T04:57:22.201Z,0.40
2018-02-11T04:59:49.714Z,0.40
2018-02-11T05:02:17.227Z,0.50
2018-02-11T05:04:44.748Z,0.50
2018-02-11T05:07:13.037Z,0.50
2018-02-11T05:09:41.333Z,0.50
2018-02-11T05:12:08.857Z,0.50
2018-02-11T05:14:36.397Z,0.50
2018-02-11T05:17:03.920Z,0.50
2018-02-11T05:22:25.545Z,0.50
2018-02-11T05:24:53.069Z,0.50
2018-02-11T05:27:20.612Z,0.50
2018-02-11T05:29:48.167Z,0.50
2018-02-11T05:32:15.675Z,0.50
2018-02-11T05:34:43.977Z,0.50
2018-02-11T05:37:11.497Z,0.50
2018-02-11T05:39:39.053Z,0.50
2018-02-11T05:42:06.656Z,0.50
2018-02-11T05:44:34.169Z,0.50
2018-02-11T05:47:01.697Z,0.50
2018-02-11T05:49:29.202Z,0.50
2018-02-11T05:51:57.480Z,0.50
2018-02-11T05:54:25.769Z,0.50
2018-02-11T05:56:54.060Z,0.50
2018-02-11T05:59:21.590Z,0.50
2018-02-11T06:01:49.878Z,0.50
2018-02-11T06:04:18.177Z,0.50
2018-02-11T06:06:45.684Z,0.50
2018-02-11T06:09:13.220Z,0.50
2018-02-11T06:11:40.770Z,0.50
2018-02-11T06:14:08.289Z,0.60
2018-02-11T06:16:36.569Z,0.60
2018-02-11T06:19:04.895Z,0.60
2018-02-11T06:21:33.170Z,0.60
2018-02-11T06:24:00.693Z,0.60
2018-02-11T06:26:28.269Z,0.60
2018-02-11T06:28:55.791Z,0.60
2018-02-11T06:31:24.116Z,0.50
2018-02-11T06:33:51.649Z,0.50
2018-02-11T06:36:19.928Z,0.50
2018-02-11T06:38:47.429Z,0.50
2018-02-11T06:41:15.732Z,0.60
2018-02-11T06:43:43.265Z,0.50
2018-02-11T06:46:10.819Z,0.50
2018-02-11T06:48:38.345Z,0.50
2018-02-11T06:51:05.877Z,0.50
2018-02-11T06:53:33.386Z,0.50
2018-02-11T06:56:00.924Z,0.50
2018-02-11T06:58:28.430Z,0.50
2018-02-11T07:00:55.960Z,0.60
2018-02-11T07:03:23.485Z,0.60
2018-02-11T07:05:51.773Z,0.70
2018-02-11T07:08:19.298Z,0.60
2018-02-11T07:10:46.822Z,0.70
2018-02-11T07:13:14.322Z,0.60
2018-02-11T07:15:41.910Z,0.70
2018-02-11T07:18:10.176Z,0.70
2018-02-11T07:20:37.702Z,0.70
2018-02-11T07:23:05.212Z,0.80
2018-02-11T07:25:32.787Z,0.80
2018-02-11T07:28:00.580Z,0.80
2018-02-11T07:30:28.874Z,0.80
2018-02-11T07:32:56.413Z,0.80
2018-02-11T07:35:23.930Z,0.90
2018-02-11T07:37:52.251Z,1.00
2018-02-11T07:40:19.840Z,0.90
2018-02-11T07:42:47.341Z,1.00
2018-02-11T07:45:14.859Z,1.00
2018-02-11T07:47:42.398Z,1.00
2018-02-11T07:50:10.005Z,1.00
2018-02-11T07:52:38.269Z,1.00
2018-02-11T07:55:06.571Z,1.00
2018-02-11T07:57:34.855Z,1.10
2018-02-11T08:00:02.425Z,1.10
2018-02-11T08:02:29.947Z,1.10
2018-02-11T08:04:58.221Z,1.00
2018-02-11T08:07:25.816Z,1.00
2018-02-11T08:09:53.359Z,1.00
2018-02-11T08:12:21.629Z,1.00
2018-02-11T08:14:49.912Z,0.90
2018-02-11T08:17:18.216Z,0.90
2018-02-11T08:19:45.729Z,0.90
2018-02-11T08:22:13.247Z,0.90
2018-02-11T08:24:40.779Z,1.00
2018-02-11T08:27:09.107Z,1.10
2018-02-11T08:29:36.619Z,1.10
2018-02-11T08:32:04.152Z,1.20
2018-02-11T08:34:32.408Z,1.20
2018-02-11T08:36:59.916Z,1.20
2018-02-11T08:39:27.420Z,1.20
2018-02-11T08:41:54.919Z,1.20
2018-02-11T08:44:23.181Z,1.30
2018-02-11T08:46:51.483Z,1.40
2018-02-11T08:49:18.997Z,1.40
2018-02-11T08:51:46.510Z,1.40
2018-02-11T08:54:14.064Z,1.40
2018-02-11T08:56:41.573Z,1.50
2018-02-11T08:59:09.101Z,1.50
2018-02-11T09:01:36.627Z,1.50
2018-02-11T09:04:04.929Z,1.60
2018-02-11T09:06:33.168Z,1.60
2018-02-11T09:09:00.679Z,1.60
2018-02-11T09:11:28.198Z,1.70
2018-02-11T09:13:56.463Z,1.70
2018-02-11T09:16:23.984Z,1.70
2018-02-11T09:18:51.511Z,1.80
2018-02-11T09:21:19.062Z,1.90
2018-02-11T09:23:47.333Z,2.00
2018-02-11T09:26:15.625Z,1.90
2018-02-11T09:28:43.894Z,2.00
2018-02-11T09:31:12.169Z,2.00
2018-02-11T09:33:40.486Z,2.00
2018-02-11T09:36:08.020Z,2.00
2018-02-11T09:38:35.535Z,2.10
2018-02-11T09:41:03.047Z,2.10
2018-02-11T09:43:30.566Z,2.10
2018-02-11T09:45:58.116Z,2.10
2018-02-11T09:48:25.626Z,2.20
2018-02-11T09:50:53.121Z,2.20
2018-02-11T09:53:20.647Z,2.20
2018-02-11T09:55:48.159Z,2.10
2018-02-11T09:58:15.681Z,2.20
2018-02-11T10:00:43.177Z,2.20
2018-02-11T10:03:10.698Z,2.30
2018-02-11T10:05:38.207Z,2.40
2018-02-11T10:08:05.718Z,2.50
2018-02-11T10:10:33.245Z,2.50
2018-02-11T10:13:01.521Z,2.60
2018-02-11T10:15:29.813Z,2.70
2018-02-11T10:17:57.328Z,2.60
2018-02-11T10:20:24.854Z,2.70
2018-02-11T10:22:53.129Z,2.90
2018-02-11T10:25:20.648Z,2.80
2018-02-11T10:27:48.165Z,2.90
2018-02-11T10:30:15.688Z,3.00
2018-02-11T10:32:43.195Z,3.00
2018-02-11T10:35:10.712Z,3.00
2018-02-11T10:37:38.228Z,3.00
2018-02-11T10:40:05.723Z,3.10
2018-02-11T10:42:33.229Z,3.10
2018-02-11T10:45:00.725Z,3.10
2018-02-11T10:47:29.012Z,3.20
2018-02-11T10:49:56.601Z,3.10
2018-02-11T10:52:24.162Z,3.20
2018-02-11T10:54:52.740Z,3.20
2018-02-11T10:57:20.265Z,3.10
2018-02-11T10:59:47.792Z,3.10
2018-02-11T11:02:15.293Z,3.10
2018-02-11T11:04:42.823Z,3.10
2018-02-11T11:07:10.325Z,3.10
2018-02-11T11:09:37.813Z,3.10
2018-02-11T11:12:05.320Z,3.00
2018-02-11T11:14:33.633Z,2.90
2018-02-11T11:17:01.173Z,2.90
2018-02-11T11:19:28.678Z,2.90
2018-02-11T11:21:56.196Z,3.00
2018-02-11T11:24:23.719Z,3.00
2018-02-11T11:26:51.215Z,3.20
2018-02-11T11:29:18.735Z,3.40
2018-02-11T11:31:46.999Z,3.90
2018-02-11T11:34:14.493Z,3.90
2018-02-11T11:36:42.771Z,4.40
2018-02-11T11:39:25.338Z,4.30
2018-02-11T11:41:52.877Z,4.30
2018-02-11T11:44:21.159Z,4.20
2018-02-11T11:46:48.701Z,4.10
2018-02-11T11:49:16.280Z,4.10
2018-02-11T11:51:43.804Z,4.00
2018-02-11T11:54:11.358Z,3.90
2018-02-11T11:56:39.650Z,3.80
2018-02-11T11:59:07.166Z,3.80
2018-02-11T12:01:34.684Z,3.80
2018-02-11T12:04:02.239Z,3.60
2018-02-11T12:06:29.730Z,3.10
2018-02-11T12:08:57.268Z,2.60
2018-02-11T12:11:24.808Z,2.30
2018-02-11T12:13:52.320Z,2.10
2018-02-11T12:16:19.813Z,2.10
2018-02-11T12:18:47.325Z,2.10
2018-02-11T12:21:14.833Z,2.20
2018-02-11T12:23:43.147Z,2.30
2018-02-11T12:26:10.669Z,2.30
2018-02-11T12:28:38.176Z,2.40
2018-02-11T12:31:05.678Z,2.60
2018-02-11T12:33:33.987Z,2.90
2018-02-11T12:36:01.498Z,2.90
2018-02-11T12:38:29.440Z,3.10
2018-02-11T12:40:56.949Z,3.20
2018-02-11T12:43:25.290Z,3.60
2018-02-11T12:45:52.807Z,3.60
2018-02-11T12:48:20.337Z,3.80
2018-02-11T12:50:48.660Z,3.90
2018-02-11T12:53:17.025Z,3.90
2018-02-11T12:55:44.536Z,4.00
2018-02-11T12:58:12.063Z,4.10
2018-02-11T13:00:39.585Z,4.10
2018-02-11T13:03:07.120Z,4.20
2018-02-11T13:05:35.389Z,4.30
2018-02-11T13:08:02.893Z,4.20
2018-02-11T13:10:30.401Z,4.20
2018-02-11T13:12:57.929Z,4.20
2018-02-11T13:15:25.499Z,4.10
2018-02-11T13:17:52.997Z,4.00
2018-02-11T13:20:20.587Z,3.90
2018-02-11T13:22:48.113Z,3.80
2018-02-11T13:25:15.681Z,3.70
2018-02-11T13:27:43.186Z,3.60
2018-02-11T13:30:10.729Z,3.20
2018-02-11T13:32:38.253Z,2.90
2018-02-11T13:35:05.817Z,2.70
2018-02-11T13:37:33.335Z,2.70
2018-02-11T13:40:01.622Z,2.70
2018-02-11T13:42:29.110Z,2.70
2018-02-11T13:44:56.614Z,2.70
2018-02-11T13:47:24.124Z,2.60
2018-02-11T13:49:51.686Z,2.60
2018-02-11T13:52:19.201Z,2.80
2018-02-11T13:54:46.761Z,2.80
2018-02-11T13:57:14.255Z,3.00
2018-02-11T13:59:41.783Z,2.90
2018-02-11T14:02:09.334Z,2.90
2018-02-11T14:04:36.838Z,3.00
2018-02-11T14:07:04.382Z,3.00
2018-02-11T14:09:31.988Z,3.00
2018-02-11T14:12:00.270Z,3.00
2018-02-11T14:14:28.562Z,3.10
2018-02-11T14:16:56.085Z,3.00
2018-02-11T14:19:24.373Z,3.20
2018-02-11T14:21:52.665Z,3.20
2018-02-11T14:24:20.166Z,3.20
2018-02-11T14:26:47.669Z,3.30
2018-02-11T14:29:15.960Z,3.30
2018-02-11T14:31:43.457Z,3.30
2018-02-11T14:34:11.006Z,3.20
2018-02-11T14:36:38.526Z,3.10
2018-02-11T14:39:06.853Z,2.90
2018-02-11T14:41:34.390Z,2.90
2018-02-11T14:44:01.910Z,2.80
2018-02-11T14:46:29.451Z,2.80
2018-02-11T14:48:56.933Z,2.80
2018-02-11T14:51:25.261Z,2.80
2018-02-11T14:53:52.780Z,2.80
2018-02-11T14:56:21.107Z,2.80
2018-02-11T14:58:48.682Z,2.70
2018-02-11T15:01:16.254Z,2.80
2018-02-11T15:03:43.772Z,2.90
2018-02-11T15:06:11.289Z,2.80
2018-02-11T15:08:39.584Z,2.80
2018-02-11T15:11:07.090Z,2.80
2018-02-11T15:13:34.591Z,2.90
2018-02-11T15:16:02.877Z,2.90
2018-02-11T15:18:30.419Z,2.90
2018-02-11T15:20:58.753Z,3.00
2018-02-11T15:23:26.309Z,2.90
2018-02-11T15:25:53.892Z,3.00
2018-02-11T15:28:21.429Z,3.00
2018-02-11T15:30:48.982Z,2.90
2018-02-11T15:33:16.507Z,2.90
2018-02-11T15:35:44.819Z,3.00
2018-02-11T15:38:12.345Z,3.00
2018-02-11T15:40:40.685Z,3.00
2018-02-11T15:43:08.225Z,3.00
2018-02-11T15:45:35.792Z,3.10
2018-02-11T15:48:03.333Z,3.10
2018-02-11T15:50:30.836Z,3.10
2018-02-11T15:52:58.330Z,3.10
2018-02-11T15:55:25.913Z,3.10
2018-02-11T15:57:53.470Z,3.10
2018-02-11T16:00:21.099Z,3.10
2018-02-11T16:02:49.399Z,3.00
2018-02-11T16:05:16.957Z,3.00
2018-02-11T16:07:44.510Z,3.00
2018-02-11T16:10:12.862Z,2.90
2018-02-11T16:12:40.390Z,2.90
2018-02-11T16:15:07.913Z,2.90
2018-02-11T16:17:35.431Z,2.80
2018-02-11T16:20:02.959Z,2.80
2018-02-11T16:22:30.445Z,2.70
2018-02-11T16:24:57.949Z,2.70
2018-02-11T16:27:25.526Z,2.70
2018-02-11T16:29:53.049Z,2.80
2018-02-11T16:32:21.362Z,2.70
2018-02-11T16:34:48.896Z,2.60
2018-02-11T16:37:17.171Z,2.90
2018-02-11T16:39:45.473Z,2.80
2018-02-11T16:42:13.046Z,2.80
2018-02-11T16:44:40.573Z,2.70
2018-02-11T16:47:08.892Z,2.50
2018-02-11T16:49:36.457Z,2.50
2018-02-11T16:52:04.093Z,2.40
2018-02-11T16:54:31.631Z,2.30
2018-02-11T16:56:59.926Z,2.30
2018-02-11T16:59:27.442Z,2.30
2018-02-11T17:01:55.430Z,2.20
2018-02-11T17:04:23.716Z,2.20
2018-02-11T17:06:51.993Z,2.20
2018-02-11T17:09:19.553Z,2.20
2018-02-11T17:11:47.115Z,2.20
2018-02-11T17:14:14.701Z,2.20
2018-02-11T17:16:42.224Z,2.20
2018-02-11T17:19:10.505Z,2.10
2018-02-11T17:21:38.832Z,2.20
2018-02-11T17:24:06.369Z,2.10
2018-02-11T17:26:33.928Z,2.10
2018-02-11T17:29:01.414Z,2.20
2018-02-11T17:31:28.936Z,2.20
2018-02-11T17:33:56.505Z,2.30
2018-02-11T17:36:24.047Z,2.30
2018-02-11T17:38:51.600Z,2.30
2018-02-11T17:41:19.897Z,2.30
2018-02-11T17:43:47.446Z,2.30
2018-02-11T17:46:15.031Z,2.20
2018-02-11T17:48:42.535Z,2.10
2018-02-11T17:51:10.090Z,2.00
2018-02-11T17:53:37.606Z,1.90
2018-02-11T17:56:05.160Z,2.10
2018-02-11T17:58:32.765Z,2.20
2018-02-11T18:01:00.293Z,2.10
2018-02-11T18:03:27.809Z,2.20
2018-02-11T18:05:55.375Z,2.10
2018-02-11T18:08:23.675Z,2.10
2018-02-11T18:10:51.191Z,2.10
2018-02-11T18:13:18.746Z,2.10
2018-02-11T18:15:46.274Z,1.90
2018-02-11T18:18:13.818Z,1.90
2018-02-11T18:20:41.350Z,2.00
2018-02-11T18:23:09.641Z,1.90
2018-02-11T18:25:37.206Z,1.90
2018-02-11T18:28:04.734Z,2.00
2018-02-11T18:30:32.254Z,1.90
2018-02-11T18:32:59.777Z,1.80
2018-02-11T18:35:28.049Z,1.70
2018-02-11T18:37:55.570Z,1.70
2018-02-11T18:40:23.061Z,1.60
2018-02-11T18:42:51.329Z,1.60
2018-02-11T18:45:18.854Z,1.60
2018-02-11T18:47:46.437Z,1.60
2018-02-11T18:50:13.927Z,1.50
2018-02-11T18:52:42.228Z,1.40
2018-02-11T18:55:09.716Z,1.40
2018-02-11T18:57:37.280Z,1.40
2018-02-11T19:00:05.130Z,1.40
2018-02-11T19:02:32.661Z,1.30
2018-02-11T19:05:00.213Z,1.30
2018-02-11T19:07:28.507Z,1.30
2018-02-11T19:09:56.286Z,1.30
2018-02-11T19:12:23.779Z,1.30
2018-02-11T19:14:51.340Z,1.30
2018-02-11T19:17:18.858Z,1.30
2018-02-11T19:19:46.373Z,1.20
2018-02-11T19:22:14.697Z,1.30
2018-02-11T19:24:42.205Z,1.30
2018-02-11T19:27:09.759Z,1.30
2018-02-11T19:29:38.101Z,1.20
2018-02-11T19:32:05.612Z,1.20
2018-02-11T19:34:33.219Z,1.20
2018-02-11T19:37:00.734Z,1.20
2018-02-11T19:39:28.292Z,1.10
2018-02-11T19:41:56.563Z,0.90
2018-02-11T19:44:24.094Z,0.90
2018-02-11T19:46:51.591Z,0.90
2018-02-11T19:49:19.944Z,0.80
2018-02-11T19:51:47.537Z,0.80
2018-02-11T19:54:15.082Z,0.80
2018-02-11T19:56:42.583Z,0.70
2018-02-11T19:59:10.093Z,0.70
2018-02-11T20:01:37.613Z,0.70
2018-02-11T20:04:05.129Z,0.70
2018-02-11T20:06:33.418Z,0.80
2018-02-11T20:09:00.969Z,0.70
2018-02-11T20:11:28.537Z,0.80
2018-02-11T20:13:56.919Z,0.80
2018-02-11T20:16:24.470Z,0.90
2018-02-11T20:18:52.813Z,0.90
2018-02-11T20:21:20.390Z,0.90
2018-02-11T20:23:47.946Z,0.90
2018-02-11T20:26:15.480Z,0.90
2018-02-11T20:28:43.014Z,0.90
2018-02-11T20:31:10.525Z,0.90
2018-02-11T20:33:38.121Z,0.90
2018-02-11T20:36:06.421Z,0.80
2018-02-11T20:38:34.009Z,0.80
2018-02-11T20:41:01.584Z,0.80
2018-02-11T20:43:29.124Z,0.80
2018-02-11T20:45:56.641Z,0.80
2018-02-11T20:48:24.146Z,0.80
2018-02-11T20:50:51.671Z,0.90
2018-02-11T20:53:19.256Z,0.90
2018-02-11T20:55:47.023Z,0.90
2018-02-11T20:58:14.568Z,0.80
2018-02-11T21:00:42.082Z,0.90
2018-02-11T21:03:09.621Z,0.90
2018-02-11T21:05:37.121Z,0.90
2018-02-11T21:08:04.673Z,0.90
2018-02-11T21:10:32.978Z,0.90
2018-02-11T21:13:00.528Z,0.80
2018-02-11T21:15:28.045Z,0.90
2018-02-11T21:17:55.568Z,0.90
2018-02-11T21:20:23.081Z,0.90
2018-02-11T21:22:51.395Z,0.80
2018-02-11T21:25:18.913Z,0.80
2018-02-11T21:30:39.276Z,0.80
2018-02-11T21:33:06.805Z,0.80
2018-02-11T21:35:35.110Z,0.80
2018-02-11T21:38:04.246Z,0.90
2018-02-11T21:40:31.806Z,0.80
2018-02-11T21:42:59.367Z,0.90
2018-02-11T21:45:27.197Z,0.90
2018-02-11T21:47:55.047Z,0.90
2018-02-11T21:50:22.839Z,0.90
2018-02-11T21:52:50.384Z,0.90
2018-02-11T21:55:17.908Z,0.90
2018-02-11T21:57:45.451Z,0.90
2018-02-11T22:00:13.053Z,0.90
2018-02-11T22:02:40.629Z,0.90
2018-02-11T22:05:08.195Z,0.90
2018-02-11T22:07:36.504Z,0.90
2018-02-11T22:10:04.028Z,0.90
2018-02-11T22:12:31.549Z,0.90
2018-02-11T22:14:59.851Z,0.80
2018-02-11T22:17:27.393Z,0.80
2018-02-11T22:19:55.691Z,0.80
2018-02-11T22:22:23.246Z,0.80
2018-02-11T22:24:50.789Z,0.80
2018-02-11T22:27:19.096Z,0.80
2018-02-11T22:29:46.617Z,0.80
2018-02-11T22:32:14.929Z,0.80
2018-02-11T22:34:42.457Z,0.80
2018-02-11T22:37:10.743Z,0.80
2018-02-11T22:39:39.055Z,0.70
2018-02-11T22:42:06.613Z,0.70
2018-02-11T22:44:34.169Z,0.70
2018-02-11T22:47:01.700Z,0.70
2018-02-11T22:49:29.302Z,0.70
2018-02-11T22:51:56.824Z,0.70
2018-02-11T22:54:25.173Z,0.60
2018-02-11T22:56:52.703Z,0.60
2018-02-11T22:59:20.275Z,0.70
2018-02-11T23:01:47.833Z,0.60
2018-02-11T23:04:15.359Z,0.60
2018-02-11T23:06:42.893Z,0.70
2018-02-11T23:09:11.222Z,0.70
2018-02-11T23:11:38.728Z,0.70
2018-02-11T23:14:06.242Z,0.70
2018-02-11T23:16:34.096Z,0.70
2018-02-11T23:19:01.699Z,0.70
2018-02-11T23:21:29.219Z,0.70
2018-02-11T23:23:56.768Z,0.70
2018-02-11T23:26:24.320Z,0.70
2018-02-11T23:28:51.896Z,0.70
2018-02-11T23:31:19.409Z,0.80
2018-02-11T23:33:47.711Z,0.80
2018-02-11T23:36:15.288Z,0.80
2018-02-11T23:38:42.795Z,0.80
2018-02-11T23:41:10.326Z,0.80
2018-02-11T23:43:37.834Z,0.80
2018-02-11T23:46:05.437Z,0.70
2018-02-11T23:48:32.928Z,0.70
2018-02-11T23:51:00.448Z,0.70
2018-02-11T23:53:27.938Z,0.70
2018-02-11T23:55:55.475Z,0.70
2018-02-11T23:58:22.965Z,0.70
